createdAt,value
2023-01-17T00:02:11.379Z,3.20
2023-01-17T00:04:57.114Z,2.83
2023-01-17T00:07:44.379Z,2.45
2023-01-17T00:10:14.546Z,3.38
2023-01-17T00:12:50.429Z,3.38
2023-01-17T00:15:19.959Z,3.70
2023-01-17T00:17:48.103Z,3.33
2023-01-17T00:20:35.421Z,3.72
2023-01-17T00:23:31.401Z,4.15
2023-01-17T00:26:04.538Z,3.00
2023-01-17T00:28:42.276Z,3.33
2023-01-17T00:31:11.352Z,6.18
2023-01-17T00:33:38.475Z,4.13
2023-01-17T00:36:06.116Z,3.90
2023-01-17T00:38:36.035Z,5.00
2023-01-17T00:41:11.574Z,5.90
2023-01-17T00:43:57.372Z,4.68
2023-01-17T00:46:42.934Z,5.00
2023-01-17T00:49:28.535Z,5.72
2023-01-17T00:52:14.022Z,3.88
2023-01-17T00:54:59.517Z,4.80
2023-01-17T00:57:46.441Z,3.70
2023-01-17T01:00:32.400Z,5.65
2023-01-17T01:03:18.203Z,4.82
2023-01-17T01:06:03.871Z,3.13
2023-01-17T01:08:50.222Z,4.82
2023-01-17T01:11:39.189Z,4.35
2023-01-17T01:14:26.872Z,2.63
2023-01-17T01:17:12.519Z,3.25
2023-01-17T01:19:57.937Z,2.00
2023-01-17T01:22:43.391Z,2.60
2023-01-17T01:25:28.954Z,2.88
2023-01-17T01:28:25.670Z,3.67
2023-01-17T01:31:11.609Z,3.50
2023-01-17T01:33:38.724Z,3.33
2023-01-17T01:36:08.806Z,4.40
2023-01-17T01:38:35.878Z,2.10
2023-01-17T01:41:02.889Z,6.43
2023-01-17T01:43:53.550Z,3.00
2023-01-17T01:46:38.455Z,2.67
2023-01-17T01:49:25.463Z,3.00
2023-01-17T01:52:01.218Z,2.15
2023-01-17T01:54:37.284Z,2.65
2023-01-17T01:57:07.184Z,2.60
2023-01-17T01:59:35.201Z,3.13
2023-01-17T02:02:02.427Z,2.13
2023-01-17T02:04:30.507Z,3.45
2023-01-17T02:07:33.390Z,2.10
2023-01-17T02:10:01.263Z,1.80
2023-01-17T02:12:28.662Z,2.22
2023-01-17T02:14:56.243Z,2.10
2023-01-17T02:17:58.136Z,3.47
2023-01-17T02:20:43.603Z,2.45
2023-01-17T02:23:34.470Z,2.53
2023-01-17T02:26:25.801Z,3.53
2023-01-17T02:29:34.956Z,1.67
2023-01-17T02:32:03.381Z,1.40
2023-01-17T02:34:46.234Z,4.78
2023-01-17T02:37:24.974Z,1.85
2023-01-17T02:40:00.614Z,4.28
2023-01-17T02:42:34.911Z,3.10
2023-01-17T02:45:03.314Z,2.78
2023-01-17T02:47:32.282Z,2.60
2023-01-17T02:50:09.576Z,1.83
2023-01-17T02:53:27.617Z,2.17
2023-01-17T02:56:17.089Z,1.95
2023-01-17T02:59:05.425Z,2.05
2023-01-17T03:01:54.288Z,4.40
2023-01-17T03:04:34.855Z,5.50
2023-01-17T03:07:06.602Z,2.92
2023-01-17T03:09:34.599Z,7.53
2023-01-17T03:12:03.755Z,3.25
2023-01-17T03:14:32.050Z,5.78
2023-01-17T03:16:59.259Z,8.48
2023-01-17T03:19:26.335Z,5.75
2023-01-17T03:21:54.051Z,4.90
2023-01-17T03:24:21.158Z,8.38
2023-01-17T03:26:48.230Z,7.05
2023-01-17T03:29:16.756Z,6.60
2023-01-17T03:31:43.841Z,7.20
2023-01-17T03:34:11.233Z,7.85
2023-01-17T03:36:38.462Z,7.53
2023-01-17T03:39:05.621Z,4.88
2023-01-17T03:41:32.641Z,6.40
2023-01-17T03:43:59.683Z,12.63
2023-01-17T03:46:28.893Z,6.43
2023-01-17T03:48:55.948Z,7.75
2023-01-17T03:51:23.471Z,5.65
2023-01-17T03:53:52.129Z,9.75
2023-01-17T03:56:19.319Z,8.23
2023-01-17T03:58:46.391Z,8.80
2023-01-17T04:01:13.636Z,10.05
2023-01-17T04:03:40.779Z,6.03
2023-01-17T04:06:08.098Z,11.13
2023-01-17T04:08:35.146Z,10.73
2023-01-17T04:11:02.193Z,11.60
2023-01-17T04:13:29.206Z,10.55
2023-01-17T04:15:56.691Z,5.68
2023-01-17T04:18:24.657Z,7.07
2023-01-17T04:20:52.340Z,8.77
2023-01-17T04:23:19.537Z,9.40
2023-01-17T04:25:46.843Z,12.50
2023-01-17T04:28:14.236Z,5.93
2023-01-17T04:30:41.288Z,6.50
2023-01-17T04:33:08.354Z,5.97
2023-01-17T04:35:36.092Z,7.05
2023-01-17T04:38:03.459Z,7.57
2023-01-17T04:40:30.535Z,9.60
2023-01-17T04:42:58.240Z,6.15
2023-01-17T04:45:25.309Z,9.43
2023-01-17T04:47:52.433Z,5.68
2023-01-17T04:50:19.606Z,12.55
2023-01-17T04:52:46.579Z,5.85
2023-01-17T04:55:13.709Z,6.18
2023-01-17T04:57:40.841Z,7.70
2023-01-17T05:00:08.640Z,6.28
2023-01-17T05:02:35.675Z,5.05
2023-01-17T05:05:02.758Z,6.63
2023-01-17T05:07:29.831Z,6.88
2023-01-17T05:09:56.848Z,10.45
2023-01-17T05:12:23.974Z,7.95
2023-01-17T05:14:51.536Z,7.75
2023-01-17T05:17:18.867Z,9.20
2023-01-17T05:19:46.328Z,5.72
2023-01-17T05:22:16.941Z,7.85
2023-01-17T05:24:45.247Z,7.35
2023-01-17T05:27:13.827Z,6.72
2023-01-17T05:29:41.235Z,10.13
2023-01-17T05:32:08.552Z,12.30
2023-01-17T05:34:36.661Z,10.48
2023-01-17T05:37:03.708Z,9.60
2023-01-17T05:39:31.231Z,9.65
2023-01-17T05:41:59.415Z,12.43
2023-01-17T05:44:27.838Z,10.43
2023-01-17T05:46:56.334Z,8.20
2023-01-17T05:49:23.610Z,7.70
2023-01-17T05:51:52.377Z,10.70
2023-01-17T05:54:20.654Z,10.50
2023-01-17T05:56:48.691Z,10.57
2023-01-17T05:59:18.740Z,9.32
2023-01-17T06:01:47.614Z,10.88
2023-01-17T06:04:14.667Z,12.07
2023-01-17T06:06:41.666Z,11.40
2023-01-17T06:09:08.785Z,10.55
2023-01-17T06:11:35.802Z,7.43
2023-01-17T06:14:02.891Z,7.40
2023-01-17T06:16:30.337Z,12.77
2023-01-17T06:18:57.410Z,8.25
2023-01-17T06:21:24.460Z,10.68
2023-01-17T06:23:55.546Z,10.35
2023-01-17T06:26:22.578Z,10.13
2023-01-17T06:28:49.586Z,8.43
2023-01-17T06:31:18.444Z,13.18
2023-01-17T06:33:45.563Z,8.73
2023-01-17T06:36:12.939Z,9.70
2023-01-17T06:38:40.054Z,8.77
2023-01-17T06:41:07.170Z,11.43
2023-01-17T06:43:35.341Z,9.73
2023-01-17T06:46:02.530Z,8.82
2023-01-17T06:48:29.591Z,12.93
2023-01-17T06:50:58.186Z,7.68
2023-01-17T06:53:25.371Z,9.35
2023-01-17T06:55:55.483Z,6.78
2023-01-17T06:58:22.553Z,7.30
2023-01-17T07:00:49.956Z,5.90
2023-01-17T07:03:25.930Z,7.13
2023-01-17T07:05:53.454Z,10.75
2023-01-17T07:08:20.872Z,7.18
2023-01-17T07:10:48.877Z,13.60
2023-01-17T07:13:16.141Z,9.35
2023-01-17T07:15:43.187Z,12.80
2023-01-17T07:18:10.297Z,10.52
2023-01-17T07:20:38.605Z,9.45
2023-01-17T07:23:06.397Z,12.50
2023-01-17T07:25:33.522Z,6.63
2023-01-17T07:28:00.638Z,8.32
2023-01-17T07:30:27.862Z,5.65
2023-01-17T07:32:55.620Z,9.43
2023-01-17T07:35:24.181Z,6.43
2023-01-17T07:37:51.681Z,5.43
2023-01-17T07:40:20.356Z,8.07
2023-01-17T07:42:47.950Z,17.13
2023-01-17T07:45:17.141Z,8.18
2023-01-17T07:47:44.192Z,10.77
2023-01-17T07:50:13.832Z,11.23
2023-01-17T07:52:41.031Z,8.02
2023-01-17T07:55:09.924Z,11.15
2023-01-17T07:57:37.123Z,8.38
2023-01-17T08:00:05.559Z,13.65
2023-01-17T08:02:32.589Z,7.53
2023-01-17T08:04:59.804Z,8.55
2023-01-17T08:07:27.109Z,9.60
2023-01-17T08:09:54.905Z,9.18
2023-01-17T08:12:21.991Z,9.65
2023-01-17T08:14:49.081Z,5.88
2023-01-17T08:17:17.301Z,8.32
2023-01-17T08:19:45.089Z,7.07
2023-01-17T08:22:12.649Z,9.60
2023-01-17T08:24:39.888Z,24.10
2023-01-17T08:27:09.057Z,18.27
2023-01-17T08:29:36.433Z,23.67
2023-01-17T08:32:04.206Z,13.38
2023-01-17T08:34:33.565Z,8.77
2023-01-17T08:37:00.676Z,10.40
2023-01-17T08:39:28.302Z,10.63
2023-01-17T08:41:55.391Z,9.23
2023-01-17T08:44:22.554Z,7.75
2023-01-17T08:46:50.567Z,9.43
2023-01-17T08:49:17.848Z,10.27
2023-01-17T08:51:44.953Z,6.88
2023-01-17T08:54:14.799Z,7.93
2023-01-17T08:56:47.067Z,6.93
2023-01-17T08:59:14.235Z,6.25
2023-01-17T09:01:42.156Z,6.30
2023-01-17T09:04:09.725Z,7.70
2023-01-17T09:06:39.581Z,10.02
2023-01-17T09:09:07.510Z,8.82
2023-01-17T09:11:35.084Z,8.85
2023-01-17T09:14:02.472Z,9.60
2023-01-17T09:16:30.277Z,8.30
2023-01-17T09:18:59.268Z,7.18
2023-01-17T09:21:27.165Z,10.60
2023-01-17T09:23:55.647Z,6.05
2023-01-17T09:26:22.733Z,10.48
2023-01-17T09:28:50.072Z,11.60
2023-01-17T09:31:17.878Z,12.43
2023-01-17T09:33:44.987Z,8.07
2023-01-17T09:36:12.477Z,9.63
2023-01-17T09:38:40.307Z,7.70
2023-01-17T09:41:20.853Z,5.05
2023-01-17T09:44:15.422Z,6.03
2023-01-17T09:46:46.615Z,9.48
2023-01-17T09:49:51.103Z,7.13
2023-01-17T09:52:21.234Z,5.90
2023-01-17T09:54:50.142Z,5.88
2023-01-17T09:57:17.149Z,7.38
2023-01-17T10:00:04.428Z,7.13
2023-01-17T10:03:05.711Z,6.32
2023-01-17T10:05:53.716Z,8.15
2023-01-17T10:08:47.237Z,4.10
2023-01-17T10:11:25.785Z,5.13
2023-01-17T10:13:59.256Z,5.40
2023-01-17T10:16:37.992Z,7.63
2023-01-17T10:19:14.315Z,4.75
2023-01-17T10:21:43.859Z,9.07
2023-01-17T10:24:22.465Z,8.45
2023-01-17T10:26:54.527Z,13.18
2023-01-17T10:29:23.161Z,10.52
2023-01-17T10:31:59.348Z,7.57
2023-01-17T10:34:45.070Z,11.18
2023-01-17T10:37:26.485Z,5.45
2023-01-17T10:39:57.519Z,8.93
2023-01-17T10:42:53.982Z,7.93
2023-01-17T10:45:29.238Z,6.20
2023-01-17T10:48:01.166Z,7.10
2023-01-17T10:50:33.488Z,6.15
2023-01-17T10:53:43.473Z,8.07
2023-01-17T10:56:15.231Z,10.85
2023-01-17T10:58:42.418Z,6.43
2023-01-17T11:01:21.261Z,7.07
2023-01-17T11:03:51.360Z,10.15
2023-01-17T11:06:27.055Z,6.78
2023-01-17T11:08:59.049Z,9.30
2023-01-17T11:11:32.617Z,10.38
2023-01-17T11:14:12.828Z,6.50
2023-01-17T11:16:39.966Z,5.85
2023-01-17T11:19:21.374Z,8.25
2023-01-17T11:21:55.028Z,8.60
2023-01-17T11:24:33.619Z,6.10
2023-01-17T11:27:00.779Z,6.10
2023-01-17T11:29:32.050Z,6.35
2023-01-17T11:32:27.508Z,5.93
2023-01-17T11:35:13.386Z,4.93
2023-01-17T11:37:49.029Z,5.93
2023-01-17T11:40:21.323Z,6.28
2023-01-17T11:43:00.459Z,6.07
2023-01-17T11:45:35.074Z,6.32
2023-01-17T11:48:12.710Z,6.13
2023-01-17T11:50:53.799Z,10.32
2023-01-17T11:53:40.086Z,4.35
2023-01-17T11:56:36.664Z,6.53
2023-01-17T11:59:21.616Z,3.67
2023-01-17T12:02:01.892Z,6.38
2023-01-17T12:04:41.720Z,4.10
2023-01-17T12:07:29.238Z,6.35
2023-01-17T12:10:33.903Z,4.90
2023-01-17T12:13:31.689Z,7.45
2023-01-17T12:16:26.651Z,8.07
2023-01-17T12:19:02.352Z,5.97
2023-01-17T12:21:49.937Z,8.52
2023-01-17T12:24:45.490Z,6.90
2023-01-17T12:27:28.644Z,8.50
2023-01-17T12:30:20.597Z,7.13
2023-01-17T12:33:24.695Z,7.80
2023-01-17T12:35:59.032Z,5.75
2023-01-17T12:38:40.360Z,6.78
2023-01-17T12:41:11.231Z,8.98
2023-01-17T12:43:41.427Z,5.95
2023-01-17T12:46:27.429Z,5.40
2023-01-17T12:49:25.400Z,8.60
2023-01-17T12:52:05.588Z,5.57
2023-01-17T12:55:11.880Z,5.53
2023-01-17T12:57:45.628Z,6.15
2023-01-17T13:00:19.761Z,6.55
2023-01-17T13:03:04.853Z,4.75
2023-01-17T13:05:41.955Z,11.88
2023-01-17T13:08:27.292Z,12.32
2023-01-17T13:11:18.310Z,8.25
2023-01-17T13:13:46.111Z,7.05
2023-01-17T13:16:42.237Z,8.50
2023-01-17T13:19:19.494Z,8.55
2023-01-17T13:21:49.134Z,14.02
2023-01-17T13:24:42.047Z,6.93
2023-01-17T13:27:56.112Z,7.65
2023-01-17T13:31:06.975Z,9.50
2023-01-17T13:34:02.740Z,4.88
2023-01-17T13:36:44.557Z,8.95
2023-01-17T13:39:44.038Z,7.53
2023-01-17T13:42:29.429Z,3.58
2023-01-17T13:44:58.230Z,5.03
2023-01-17T13:47:25.803Z,5.13
2023-01-17T13:49:56.902Z,5.25
2023-01-17T13:52:26.780Z,5.43
2023-01-17T13:55:02.040Z,6.00
2023-01-17T13:57:43.508Z,3.50
2023-01-17T14:00:16.181Z,4.82
2023-01-17T14:02:43.795Z,4.00
2023-01-17T14:05:21.415Z,2.53
2023-01-17T14:07:56.104Z,7.22
2023-01-17T14:10:47.674Z,4.15
2023-01-17T14:13:33.255Z,5.00
2023-01-17T14:16:02.046Z,3.05
2023-01-17T14:18:40.892Z,5.97
2023-01-17T14:21:33.560Z,3.70
2023-01-17T14:24:16.824Z,4.32
2023-01-17T14:26:47.434Z,3.28
2023-01-17T14:29:48.426Z,3.13
2023-01-17T14:32:21.367Z,5.57
2023-01-17T14:34:51.069Z,6.50
2023-01-17T14:37:27.399Z,4.78
2023-01-17T14:39:58.744Z,2.10
2023-01-17T14:42:29.012Z,2.85
2023-01-17T14:45:13.505Z,3.60
2023-01-17T14:50:21.325Z,6.60
2023-01-17T14:53:05.662Z,7.03
2023-01-17T14:55:32.716Z,2.38
2023-01-17T14:57:59.824Z,2.70
2023-01-17T15:00:29.644Z,3.40
2023-01-17T15:02:59.599Z,6.68
2023-01-17T15:05:29.007Z,3.38
2023-01-17T15:07:58.173Z,3.35
2023-01-17T15:10:33.815Z,4.22
2023-01-17T15:13:09.181Z,2.60
2023-01-17T15:15:39.995Z,7.60
2023-01-17T15:18:15.743Z,3.42
2023-01-17T15:20:49.113Z,2.92
2023-01-17T15:23:20.613Z,6.90
2023-01-17T15:25:50.390Z,4.28
2023-01-17T15:28:18.218Z,5.95
2023-01-17T15:31:27.023Z,2.22
2023-01-17T15:33:57.590Z,5.90
2023-01-17T15:36:32.623Z,4.22
2023-01-17T15:39:15.374Z,1.98
2023-01-17T15:41:42.445Z,3.10
2023-01-17T15:44:49.355Z,2.65
2023-01-17T15:47:32.884Z,4.38
2023-01-17T15:50:02.151Z,5.45
2023-01-17T15:52:29.600Z,4.63
2023-01-17T15:55:11.610Z,2.33
2023-01-17T15:57:39.927Z,3.95
2023-01-17T16:00:15.732Z,6.93
2023-01-17T16:02:45.301Z,3.38
2023-01-17T16:05:27.935Z,6.05
2023-01-17T16:07:57.738Z,2.35
2023-01-17T16:10:29.524Z,3.28
2023-01-17T16:12:56.865Z,4.50
2023-01-17T16:15:27.454Z,4.45
2023-01-17T16:18:03.729Z,5.15
2023-01-17T16:20:33.488Z,4.93
2023-01-17T16:23:02.179Z,4.45
2023-01-17T16:25:33.119Z,4.00
2023-01-17T16:28:00.850Z,2.38
2023-01-17T16:30:29.100Z,6.80
2023-01-17T16:32:59.559Z,3.88
2023-01-17T16:35:30.202Z,3.60
2023-01-17T16:38:02.586Z,4.38
2023-01-17T16:40:32.649Z,6.43
2023-01-17T16:43:01.075Z,6.18
2023-01-17T16:45:28.297Z,6.97
2023-01-17T16:47:55.543Z,4.25
2023-01-17T16:50:25.404Z,7.60
2023-01-17T16:52:54.254Z,10.10
2023-01-17T16:55:24.502Z,6.63
2023-01-17T16:57:56.350Z,8.85
2023-01-17T17:00:24.243Z,5.97
2023-01-17T17:02:52.167Z,6.18
2023-01-17T17:05:20.454Z,11.57
2023-01-17T17:07:51.536Z,14.38
2023-01-17T17:10:21.025Z,14.80
2023-01-17T17:12:48.533Z,11.57
2023-01-17T17:15:15.725Z,7.57
2023-01-17T17:17:43.804Z,5.32
2023-01-17T17:20:14.306Z,6.32
2023-01-17T17:22:44.154Z,4.75
2023-01-17T17:25:12.615Z,6.15
2023-01-17T17:27:41.078Z,6.35
2023-01-17T17:30:09.617Z,7.47
2023-01-17T17:32:37.973Z,7.88
2023-01-17T17:35:05.895Z,12.02
2023-01-17T17:37:32.983Z,7.53
2023-01-17T17:40:00.165Z,12.27
2023-01-17T17:42:28.479Z,5.40
2023-01-17T17:44:55.675Z,7.85
2023-01-17T17:47:24.265Z,9.80
2023-01-17T17:49:51.454Z,7.55
2023-01-17T17:52:18.696Z,11.90
2023-01-17T17:54:45.881Z,6.93
2023-01-17T17:57:12.997Z,10.48
2023-01-17T17:59:40.618Z,7.88
2023-01-17T18:02:10.901Z,17.23
2023-01-17T18:04:38.341Z,9.10
2023-01-17T18:07:05.614Z,9.73
2023-01-17T18:09:32.865Z,10.82
2023-01-17T18:12:00.309Z,9.80
2023-01-17T18:14:27.607Z,8.68
2023-01-17T18:16:54.955Z,8.68
2023-01-17T21:40:36.107Z,18.42
2023-01-17T21:43:03.309Z,16.30
2023-01-17T21:45:32.182Z,15.43
2023-01-17T21:47:59.629Z,19.30
2023-01-17T21:50:33.389Z,14.98
2023-01-17T21:55:46.442Z,18.58
2023-01-17T21:58:35.601Z,16.13
2023-01-17T22:01:16.114Z,16.65
2023-01-17T22:04:03.813Z,20.15
2023-01-17T22:06:34.523Z,15.65
2023-01-17T22:09:01.949Z,16.77
2023-01-17T22:11:30.656Z,13.55
2023-01-17T22:13:59.309Z,15.32
2023-01-17T22:16:26.749Z,13.18
2023-01-17T22:18:54.020Z,16.55
2023-01-17T22:21:23.835Z,21.92
2023-01-17T22:23:59.224Z,15.55
2023-01-17T22:26:29.644Z,16.27
2023-01-17T22:29:00.035Z,11.25
2023-01-17T22:31:28.648Z,14.90
2023-01-17T22:34:02.425Z,12.60
2023-01-17T22:36:34.333Z,13.63
2023-01-17T22:39:01.938Z,13.38
2023-01-17T22:41:30.190Z,11.32
2023-01-17T22:43:59.385Z,18.08
2023-01-17T22:46:29.104Z,13.35
2023-01-17T22:48:57.846Z,12.30
2023-01-17T22:51:33.895Z,14.50
2023-01-17T22:54:01.841Z,17.50
2023-01-17T22:56:31.843Z,15.57
2023-01-17T22:59:01.022Z,17.02
2023-01-17T23:01:30.933Z,15.52
2023-01-17T23:04:00.157Z,16.60
2023-01-17T23:06:32.932Z,16.45
2023-01-17T23:09:02.928Z,18.25
2023-01-17T23:11:45.136Z,16.27
2023-01-17T23:14:19.088Z,16.05
2023-01-17T23:19:41.613Z,15.13
2023-01-17T23:22:21.628Z,22.02
2023-01-17T23:24:57.362Z,20.75
2023-01-17T23:27:50.002Z,16.10
2023-01-17T23:30:18.236Z,16.90
2023-01-17T23:32:51.142Z,15.30
2023-01-17T23:35:20.422Z,15.13
2023-01-17T23:38:07.851Z,14.55
2023-01-17T23:40:36.275Z,10.65
2023-01-17T23:43:22.404Z,14.25
2023-01-17T23:45:54.098Z,18.40
2023-01-17T23:48:23.784Z,13.00
2023-01-17T23:50:50.941Z,13.57
2023-01-17T23:53:23.868Z,11.15
2023-01-17T23:55:53.019Z,16.30
2023-01-17T23:58:26.060Z,14.45
